createdAt,value
2022-10-05T00:01:54.896Z,11.40
2022-10-05T00:07:08.860Z,11.30
2022-10-05T00:12:19.698Z,11.20
2022-10-05T00:17:24.334Z,11.20
2022-10-05T00:22:31.477Z,11.20
2022-10-05T00:27:37.500Z,11.10
2022-10-05T00:32:39.506Z,11.00
2022-10-05T00:37:41.773Z,11.00
2022-10-05T00:43:18.435Z,10.90
2022-10-05T00:48:44.580Z,10.90
2022-10-05T00:53:56.553Z,10.90
2022-10-05T00:59:22.401Z,10.90
2022-10-05T01:04:40.484Z,10.80
2022-10-05T01:09:51.374Z,10.90
2022-10-05T01:15:00.191Z,10.90
2022-10-05T01:20:10.267Z,10.90
2022-10-05T01:25:38.179Z,10.90
2022-10-05T01:31:17.730Z,10.90
2022-10-05T01:36:32.300Z,10.90
2022-10-05T01:42:05.824Z,10.90
2022-10-05T01:47:12.205Z,10.90
2022-10-05T01:52:51.365Z,10.80
2022-10-05T01:58:07.581Z,10.80
2022-10-05T02:03:19.652Z,10.70
2022-10-05T02:08:31.116Z,10.60
2022-10-05T02:13:41.295Z,10.60
2022-10-05T02:18:56.624Z,10.60
2022-10-05T02:24:02.149Z,10.60
2022-10-05T02:29:08.507Z,10.50
2022-10-05T02:34:24.557Z,10.50
2022-10-05T02:40:19.905Z,10.40
2022-10-05T02:45:34.983Z,10.40
2022-10-05T02:50:53.356Z,10.40
2022-10-05T02:56:27.097Z,10.30
2022-10-05T03:01:44.088Z,10.30
2022-10-05T03:07:10.080Z,10.20
2022-10-05T03:12:24.068Z,10.30
2022-10-05T03:17:32.511Z,10.30
2022-10-05T03:22:51.894Z,10.30
2022-10-05T03:28:03.293Z,10.40
2022-10-05T03:33:08.246Z,10.40
2022-10-05T03:38:22.250Z,10.50
2022-10-05T03:43:43.567Z,10.50
2022-10-05T03:49:13.986Z,10.60
2022-10-05T03:54:41.144Z,10.60
2022-10-05T04:00:02.149Z,10.60
2022-10-05T04:05:35.732Z,10.70
2022-10-05T04:10:47.511Z,10.70
2022-10-05T04:16:11.398Z,10.70
2022-10-05T04:21:24.929Z,10.70
2022-10-05T04:26:40.877Z,10.70
2022-10-05T04:32:19.977Z,10.70
2022-10-05T04:37:45.757Z,10.60
2022-10-05T04:43:20.178Z,10.70
2022-10-05T04:48:55.664Z,10.70
2022-10-05T04:54:16.698Z,10.70
2022-10-05T04:59:33.499Z,10.70
2022-10-05T05:04:52.331Z,10.60
2022-10-05T05:10:14.103Z,10.60
2022-10-05T05:15:30.726Z,10.60
2022-10-05T05:21:10.903Z,10.60
2022-10-05T05:26:25.477Z,10.70
2022-10-05T05:31:53.313Z,10.70
2022-10-05T05:37:17.252Z,10.70
2022-10-05T05:42:39.680Z,10.70
2022-10-05T05:47:51.974Z,10.70
2022-10-05T05:53:01.617Z,10.80
2022-10-05T05:58:16.872Z,10.80
2022-10-05T06:03:27.654Z,10.90
2022-10-05T06:08:39.407Z,10.90
2022-10-05T06:13:58.194Z,11.00
2022-10-05T06:19:13.060Z,11.00
2022-10-05T06:24:23.037Z,11.10
2022-10-05T06:29:33.281Z,11.10
2022-10-05T06:34:59.151Z,11.20
2022-10-05T06:40:18.115Z,11.30
2022-10-05T06:45:22.819Z,11.40
2022-10-05T06:51:04.701Z,11.60
2022-10-05T06:56:31.258Z,11.70
2022-10-05T07:01:55.998Z,11.80
2022-10-05T07:06:59.139Z,11.90
2022-10-05T07:12:19.366Z,12.00
2022-10-05T07:17:36.615Z,12.00
2022-10-05T07:23:05.308Z,12.10
2022-10-05T07:28:32.821Z,12.20
2022-10-05T07:34:24.775Z,12.20
2022-10-05T07:39:59.265Z,12.40
2022-10-05T07:45:30.765Z,12.60
2022-10-05T07:50:43.771Z,12.90
2022-10-05T07:55:52.920Z,13.20
2022-10-05T08:01:35.134Z,13.40
2022-10-05T08:06:52.642Z,13.50
2022-10-05T08:12:06.120Z,13.70
2022-10-05T08:17:21.690Z,13.80
2022-10-05T08:22:31.245Z,14.10
2022-10-05T08:27:53.223Z,14.30
2022-10-05T08:33:07.450Z,14.40
2022-10-05T08:38:29.892Z,14.60
2022-10-05T08:43:37.371Z,14.60
2022-10-05T08:48:39.080Z,14.70
2022-10-05T08:54:11.448Z,14.80
2022-10-05T08:59:39.683Z,14.90
2022-10-05T09:05:00.403Z,15.10
2022-10-05T09:10:21.027Z,15.20
2022-10-05T09:15:41.568Z,15.50
2022-10-05T09:20:58.396Z,15.60
2022-10-05T09:26:08.819Z,15.90
2022-10-05T09:31:49.319Z,16.00
2022-10-05T09:37:26.401Z,16.10
2022-10-05T09:42:28.095Z,16.30
2022-10-05T09:47:41.671Z,16.50
2022-10-05T09:53:18.062Z,16.50
2022-10-05T09:58:55.139Z,16.50
2022-10-05T10:04:12.816Z,16.50
2022-10-05T10:09:41.450Z,16.60
2022-10-05T10:15:04.933Z,16.60
2022-10-05T10:20:13.228Z,16.50
2022-10-05T10:25:36.160Z,16.20
2022-10-05T10:30:58.576Z,16.10
2022-10-05T10:36:21.978Z,16.20
2022-10-05T10:41:45.009Z,16.30
2022-10-05T10:47:12.807Z,16.40
2022-10-05T10:53:00.217Z,16.50
2022-10-05T10:58:42.662Z,16.50
2022-10-05T11:03:53.766Z,16.50
2022-10-05T11:09:03.125Z,16.60
2022-10-05T11:14:28.355Z,16.60
2022-10-05T11:25:44.369Z,16.70
2022-10-05T11:31:08.079Z,17.00
2022-10-05T11:36:37.786Z,17.40
2022-10-05T11:41:59.388Z,17.70
2022-10-05T11:47:27.815Z,18.00
2022-10-05T11:52:50.178Z,18.20
2022-10-05T11:57:58.785Z,18.20
2022-10-05T12:03:15.655Z,18.50
2022-10-05T12:08:32.269Z,18.50
2022-10-05T12:13:56.001Z,18.50
2022-10-05T12:19:16.335Z,18.40
2022-10-05T12:24:35.138Z,18.50
2022-10-05T12:29:47.049Z,18.70
2022-10-05T12:35:36.552Z,18.70
2022-10-05T12:41:19.653Z,18.90
2022-10-05T12:46:35.935Z,19.20
2022-10-05T12:51:43.046Z,19.60
2022-10-05T12:56:59.113Z,20.00
2022-10-05T13:02:24.884Z,20.30
2022-10-05T13:07:47.656Z,20.60
2022-10-05T13:13:07.916Z,21.00
2022-10-05T13:18:25.614Z,20.90
2022-10-05T13:23:51.655Z,21.10
2022-10-05T13:29:11.721Z,21.40
2022-10-05T13:34:52.988Z,21.40
2022-10-05T13:40:05.335Z,21.70
2022-10-05T13:45:31.894Z,22.10
2022-10-05T13:50:38.558Z,22.40
2022-10-05T13:55:53.986Z,22.60
2022-10-05T14:01:00.138Z,22.90
2022-10-05T14:06:10.409Z,23.20
2022-10-05T14:11:32.413Z,23.30
2022-10-05T14:16:35.716Z,23.40
2022-10-05T14:21:55.129Z,23.10
2022-10-05T14:26:59.039Z,23.00
2022-10-05T14:32:16.430Z,21.90
2022-10-05T14:37:21.376Z,21.20
2022-10-05T14:42:26.913Z,20.90
2022-10-05T14:47:32.016Z,20.50
2022-10-05T14:52:34.753Z,20.30
2022-10-05T14:57:42.648Z,20.00
2022-10-05T15:03:18.760Z,19.80
2022-10-05T15:08:49.795Z,19.60
2022-10-05T15:13:52.755Z,19.40
2022-10-05T15:19:01.842Z,19.30
2022-10-05T15:24:09.308Z,19.20
2022-10-05T15:29:29.935Z,19.00
2022-10-05T15:34:41.391Z,19.00
2022-10-05T15:39:59.795Z,18.80
2022-10-05T15:45:25.676Z,18.80
2022-10-05T15:50:28.369Z,18.60
2022-10-05T15:55:54.733Z,18.50
2022-10-05T16:01:12.781Z,18.40
2022-10-05T16:06:40.256Z,18.30
2022-10-05T16:12:11.366Z,18.20
2022-10-05T16:17:28.574Z,18.00
2022-10-05T16:23:04.017Z,18.00
2022-10-05T16:28:38.312Z,17.80
2022-10-05T16:33:54.332Z,17.70
2022-10-05T16:39:25.066Z,17.50
2022-10-05T16:44:41.635Z,17.40
2022-10-05T16:50:00.960Z,17.30
2022-10-05T16:55:19.959Z,17.10
2022-10-05T17:00:51.859Z,17.00
2022-10-05T17:06:09.124Z,16.90
2022-10-05T17:11:17.005Z,16.80
2022-10-05T17:16:33.164Z,16.60
2022-10-05T17:21:50.034Z,16.50
2022-10-05T17:27:02.453Z,16.40
2022-10-05T17:32:07.193Z,16.30
2022-10-05T17:37:18.178Z,16.20
2022-10-05T17:42:34.173Z,16.10
2022-10-05T17:47:55.778Z,16.00
2022-10-05T17:53:39.372Z,15.90
2022-10-05T17:58:44.089Z,15.80
2022-10-05T18:03:51.337Z,15.70
2022-10-05T18:09:20.686Z,15.60
2022-10-05T18:14:24.829Z,15.50
2022-10-05T18:19:32.251Z,15.40
2022-10-05T18:24:41.313Z,15.40
2022-10-05T18:30:02.319Z,15.30
2022-10-05T18:35:19.179Z,15.20
2022-10-05T18:40:26.432Z,15.20
2022-10-05T18:45:50.034Z,15.20
2022-10-05T18:51:22.229Z,15.10
2022-10-05T18:56:31.576Z,15.10
2022-10-05T19:01:52.277Z,15.00
2022-10-05T19:07:29.299Z,15.00
2022-10-05T19:12:43.223Z,15.00
2022-10-05T19:18:12.418Z,14.90
2022-10-05T19:23:38.701Z,14.80
2022-10-05T19:28:55.980Z,14.80
2022-10-05T19:34:06.669Z,14.80
2022-10-05T19:39:21.152Z,14.80
2022-10-05T19:44:49.737Z,14.80
2022-10-05T19:49:56.947Z,14.80
2022-10-05T19:55:16.186Z,14.70
2022-10-05T20:00:27.607Z,14.60
2022-10-05T20:05:29.450Z,14.60
2022-10-05T20:10:32.085Z,14.50
2022-10-05T20:15:54.761Z,14.50
2022-10-05T20:20:56.606Z,14.50
2022-10-05T20:26:16.922Z,14.50
2022-10-05T20:31:20.155Z,14.50
2022-10-05T20:36:21.947Z,14.60
2022-10-05T20:41:23.790Z,14.70
2022-10-05T20:46:25.588Z,14.70
2022-10-05T20:51:30.126Z,14.70
2022-10-05T20:56:32.441Z,14.70
2022-10-05T21:01:34.333Z,14.90
2022-10-05T21:06:36.117Z,14.80
2022-10-05T21:11:39.637Z,14.80
2022-10-05T21:16:41.770Z,14.80
2022-10-05T21:21:47.877Z,14.90
2022-10-05T21:26:49.836Z,14.90
2022-10-05T21:31:51.898Z,15.00
2022-10-05T21:36:53.820Z,15.00
2022-10-05T21:41:56.235Z,15.00
2022-10-05T21:46:58.383Z,15.00
2022-10-05T21:52:01.675Z,15.00
2022-10-05T21:57:04.114Z,15.00
2022-10-05T22:02:05.829Z,15.00
2022-10-05T22:07:19.134Z,15.00
2022-10-05T22:12:21.211Z,15.10
2022-10-05T22:17:27.342Z,15.10
2022-10-05T22:22:29.750Z,15.00
2022-10-05T22:27:33.509Z,15.00
2022-10-05T22:32:35.227Z,15.00
2022-10-05T22:37:38.209Z,15.10
2022-10-05T22:42:40.642Z,15.10
2022-10-05T22:47:42.985Z,15.10
2022-10-05T22:52:44.685Z,15.00
2022-10-05T22:57:46.586Z,14.90
2022-10-05T23:02:48.486Z,14.90
2022-10-05T23:07:50.425Z,14.90
2022-10-05T23:13:01.014Z,14.90
2022-10-05T23:18:03.034Z,14.80
2022-10-05T23:23:04.990Z,14.80
2022-10-05T23:28:06.785Z,14.80
2022-10-05T23:33:08.545Z,14.80
2022-10-05T23:38:10.450Z,14.80
2022-10-05T23:43:12.185Z,14.80
2022-10-05T23:48:14.256Z,14.80
2022-10-05T23:53:17.382Z,14.80
2022-10-05T23:58:20.072Z,14.80
